Time;durP1;ratioP1;P1;durP2;ratioP2;P2;SDS_P1;SDS_P2;PMS_P1;PMS_P2;Temp;Humidity;BMP_temperature;BMP_pressure;BME280_temperature;BME280_humidity;BME280_pressure;Samples;Min_cycle;Max_cycle;Signal;HPM_P1;HPM_P2
2021/01/05 00:02:17;;;;;;;14.77;10.33;;;3.40;99.90;;;;;;5068167;28;20570;-55
2021/01/05 00:04:42;;;;;;;12.25;9.45;;;3.30;99.90;;;;;;5059147;28;20272;-56
2021/01/05 00:07:09;;;;;;;11.68;8.82;;;3.20;99.90;;;;;;5069426;28;20209;-56
2021/01/05 00:09:35;;;;;;;16.17;11.60;;;3.40;99.90;;;;;;5070025;28;20177;-55
2021/01/05 00:12:07;;;;;;;13.97;10.20;;;3.40;99.90;;;;;;5067369;28;20239;-56
2021/01/05 00:14:34;;;;;;;13.50;9.70;;;3.20;99.90;;;;;;5067834;28;20208;-56
2021/01/05 00:17:00;;;;;;;15.27;10.43;;;3.10;99.90;;;;;;5069551;28;20203;-56
2021/01/05 00:19:26;;;;;;;16.83;11.67;;;3.40;99.90;;;;;;5062164;28;20706;-56
2021/01/05 00:21:52;;;;;;;15.55;10.75;;;3.10;99.90;;;;;;5069753;28;20481;-56
2021/01/05 00:24:18;;;;;;;14.45;9.55;;;3.10;99.90;;;;;;5064195;28;20181;-56
2021/01/05 00:26:44;;;;;;;14.83;10.70;;;3.10;99.90;;;;;;5069801;28;20295;-56
2021/01/05 00:29:11;;;;;;;15.85;10.35;;;3.00;99.90;;;;;;5068770;28;20436;-57
2021/01/05 00:31:38;;;;;;;14.48;10.73;;;2.80;99.90;;;;;;5068626;28;20197;-56
2021/01/05 00:34:04;;;;;;;18.80;11.07;;;3.20;99.90;;;;;;5069098;28;20209;-56
2021/01/05 00:36:30;;;;;;;15.75;10.65;;;3.10;99.90;;;;;;5069444;28;20209;-57
2021/01/05 00:38:56;;;;;;;15.03;11.23;;;3.10;99.90;;;;;;5066963;28;20243;-57
2021/01/05 00:41:22;;;;;;;15.30;10.83;;;3.00;99.90;;;;;;5068962;28;20217;-57
2021/01/05 00:43:48;;;;;;;15.00;10.43;;;3.00;99.90;;;;;;5069277;28;20180;-57
2021/01/05 00:46:15;;;;;;;15.30;11.02;;;3.10;99.90;;;;;;5066660;28;20204;-56
2021/01/05 00:48:44;;;;;;;14.45;10.65;;;3.40;99.90;;;;;;5066853;28;20208;-56
2021/01/05 00:51:11;;;;;;;15.30;9.95;;;2.90;99.90;;;;;;5066823;28;20250;-57
2021/01/05 00:53:37;;;;;;;13.02;9.95;;;3.40;99.90;;;;;;5068582;28;20600;-56
2021/01/05 00:56:03;;;;;;;16.20;10.90;;;2.90;99.90;;;;;;5068888;28;20177;-56
2021/01/05 00:58:28;;;;;;;16.03;10.70;;;3.00;99.90;;;;;;5068395;28;20406;-57
2021/01/05 01:00:54;;;;;;;16.10;11.30;;;3.30;99.90;;;;;;5058694;28;20428;-57
2021/01/05 01:03:21;;;;;;;16.17;11.80;;;3.20;99.90;;;;;;5063255;28;20193;-57
2021/01/05 01:05:47;;;;;;;14.57;10.75;;;3.20;99.90;;;;;;5060105;28;20208;-56
2021/01/05 01:08:20;;;;;;;15.10;12.23;;;2.80;99.90;;;;;;5066061;28;20205;-56
2021/01/05 01:10:46;;;;;;;13.70;10.35;;;2.90;99.90;;;;;;5068045;28;20223;-56
2021/01/05 01:13:12;;;;;;;16.13;11.27;;;3.10;99.90;;;;;;5063227;28;20632;-56
2021/01/05 01:15:38;;;;;;;16.17;11.93;;;2.90;99.90;;;;;;5055488;28;20185;-57
2021/01/05 01:18:05;;;;;;;21.00;12.32;;;3.20;99.90;;;;;;5068127;28;20216;-56
2021/01/05 01:20:35;;;;;;;19.08;11.73;;;2.80;99.90;;;;;;5067330;28;20269;-56
2021/01/05 01:23:02;;;;;;;16.50;11.38;;;3.00;99.90;;;;;;5068728;28;20188;-56
2021/01/05 01:25:27;;;;;;;15.40;11.50;;;3.00;99.90;;;;;;5068443;28;20665;-56
2021/01/05 01:27:53;;;;;;;16.33;11.90;;;3.10;99.90;;;;;;5068123;28;20189;-57
2021/01/05 01:30:20;;;;;;;15.90;11.70;;;3.10;99.90;;;;;;5061910;28;20659;-57
2021/01/05 01:32:46;;;;;;;17.48;12.48;;;3.10;99.90;;;;;;5056216;28;20185;-57
2021/01/05 01:35:13;;;;;;;18.70;12.45;;;3.20;99.90;;;;;;5062701;28;20733;-57
2021/01/05 01:37:39;;;;;;;14.90;10.48;;;3.10;99.90;;;;;;5064596;28;20262;-57
2021/01/05 01:40:09;;;;;;;18.30;11.50;;;3.00;99.90;;;;;;5061514;28;20589;-57
2021/01/05 01:42:36;;;;;;;17.08;12.13;;;3.00;99.90;;;;;;5068739;28;20178;-57
2021/01/05 01:45:03;;;;;;;14.65;10.65;;;3.70;99.90;;;;;;5068374;28;20398;-56
2021/01/05 01:47:28;;;;;;;15.70;11.38;;;3.10;99.90;;;;;;5068901;28;20244;-57
2021/01/05 01:50:03;;;;;;;14.47;10.80;;;3.30;99.90;;;;;;5068290;28;20204;-57
2021/01/05 01:52:41;;;;;;;16.05;10.45;;;3.00;99.90;;;;;;5068350;28;20188;-57
2021/01/05 01:55:51;;;;;;;14.70;10.88;;;3.10;99.90;;;;;;5067329;28;20346;-57
2021/01/05 01:58:48;;;;;;;17.65;12.02;;;3.30;99.90;;;;;;5065394;28;20312;-56
2021/01/05 02:01:42;;;;;;;16.55;11.80;;;3.20;99.90;;;;;;5066554;28;20188;-56
2021/01/05 02:04:44;;;;;;;18.08;12.00;;;3.20;99.90;;;;;;5060027;28;20264;-56
2021/01/05 02:07:47;;;;;;;15.15;11.48;;;3.10;99.90;;;;;;5068712;28;20208;-56
2021/01/05 02:10:44;;;;;;;15.02;9.82;;;3.20;99.90;;;;;;5062580;28;20181;-56
2021/01/05 02:13:37;;;;;;;14.18;11.00;;;3.20;99.90;;;;;;5062301;28;20526;-56
2021/01/05 02:16:31;;;;;;;16.35;11.98;;;3.40;99.90;;;;;;5065717;28;20275;-56
2021/01/05 02:19:09;;;;;;;17.25;12.15;;;3.30;99.90;;;;;;5039746;28;20224;-56
2021/01/05 02:22:07;;;;;;;16.73;10.82;;;3.40;99.90;;;;;;5069280;28;20185;-56
2021/01/05 02:24:39;;;;;;;15.95;11.10;;;3.30;99.90;;;;;;5065242;28;20174;-56
2021/01/05 02:27:12;;;;;;;16.67;11.48;;;3.50;99.90;;;;;;5062300;28;20208;-57
2021/01/05 02:29:54;;;;;;;14.93;11.40;;;3.40;99.90;;;;;;5057485;28;20182;-56
2021/01/05 02:32:27;;;;;;;19.13;12.18;;;3.50;99.90;;;;;;5065612;28;20192;-56
2021/01/05 02:35:24;;;;;;;15.40;11.38;;;3.50;99.90;;;;;;5067657;28;20262;-56
2021/01/05 02:38:23;;;;;;;15.75;11.35;;;3.40;99.90;;;;;;5062740;28;20207;-57
2021/01/05 02:41:41;;;;;;;14.60;10.85;;;3.60;99.90;;;;;;5035049;28;20210;-56
2021/01/05 02:44:54;;;;;;;16.42;11.93;;;3.40;99.90;;;;;;5053246;28;20615;-57
2021/01/05 02:47:51;;;;;;;20.25;12.50;;;3.60;99.90;;;;;;5067540;28;20228;-56
2021/01/05 02:50:38;;;;;;;15.63;10.82;;;3.40;99.90;;;;;;5029076;28;20201;-57
2021/01/05 02:53:35;;;;;;;14.05;10.82;;;3.70;99.90;;;;;;5054853;28;20190;-56
2021/01/05 02:56:39;;;;;;;15.82;11.85;;;3.70;99.90;;;;;;5067410;28;20173;-57
2021/01/05 02:59:22;;;;;;;17.90;12.18;;;3.20;99.90;;;;;;5069937;28;20239;-57
2021/01/05 03:01:57;;;;;;;16.48;11.07;;;3.30;99.90;;;;;;5071016;28;20180;-57
2021/01/05 03:04:22;;;;;;;19.20;12.43;;;3.20;99.90;;;;;;5070875;28;20259;-57
2021/01/05 03:06:54;;;;;;;16.80;12.20;;;3.30;99.90;;;;;;5070108;28;20211;-56
2021/01/05 03:10:13;;;;;;;19.98;13.15;;;3.40;99.90;;;;;;5070549;28;20846;-57
2021/01/05 03:13:04;;;;;;;18.13;12.75;;;3.10;99.90;;;;;;5032892;28;20197;-57
2021/01/05 03:15:50;;;;;;;19.00;13.32;;;3.30;99.90;;;;;;4999526;28;20190;-57
2021/01/05 03:18:25;;;;;;;17.65;12.55;;;3.30;99.90;;;;;;5045816;28;20209;-56
2021/01/05 03:21:02;;;;;;;21.17;13.48;;;3.50;99.90;;;;;;5054619;28;20318;-56
2021/01/05 03:23:31;;;;;;;23.20;14.35;;;3.20;99.90;;;;;;5070783;28;20834;-58
2021/01/05 03:25:59;;;;;;;20.30;12.75;;;3.20;99.90;;;;;;5070531;28;20177;-56
2021/01/05 03:28:28;;;;;;;20.67;12.70;;;3.30;99.90;;;;;;5070320;28;20812;-57
2021/01/05 03:31:09;;;;;;;25.95;15.20;;;3.20;99.90;;;;;;5071865;28;20649;-57
2021/01/05 03:33:35;;;;;;;24.35;15.15;;;3.10;99.90;;;;;;5070152;28;20341;-57
2021/01/05 03:36:00;;;;;;;20.73;13.10;;;3.50;99.90;;;;;;5064669;28;20321;-56
2021/01/05 03:38:26;;;;;;;25.57;15.23;;;3.50;99.90;;;;;;5070028;28;20850;-57
2021/01/05 03:40:52;;;;;;;26.90;15.43;;;3.50;99.90;;;;;;5067951;28;20323;-57
2021/01/05 03:43:18;;;;;;;19.97;13.60;;;3.40;99.90;;;;;;5070505;28;20169;-57
2021/01/05 03:45:43;;;;;;;23.30;14.63;;;3.50;99.90;;;;;;5069970;28;20181;-56
2021/01/05 03:48:12;;;;;;;21.70;15.27;;;3.30;99.90;;;;;;5053581;28;20574;-57
2021/01/05 03:50:37;;;;;;;24.58;15.10;;;3.60;99.90;;;;;;5068159;28;20354;-56
2021/01/05 03:53:03;;;;;;;23.40;14.87;;;3.50;99.90;;;;;;5067705;28;20236;-57
2021/01/05 03:55:29;;;;;;;23.70;15.53;;;3.60;99.90;;;;;;5070082;28;20181;-57
2021/01/05 03:57:54;;;;;;;26.53;15.90;;;3.30;99.90;;;;;;5070070;28;20287;-57
2021/01/05 04:00:28;;;;;;;22.00;13.83;;;3.40;99.90;;;;;;5070114;28;20600;-56
2021/01/05 04:02:58;;;;;;;25.23;15.43;;;3.40;99.90;;;;;;5069370;28;20185;-56
2021/01/05 04:05:26;;;;;;;27.45;15.55;;;3.40;99.90;;;;;;5074329;28;20186;-57
2021/01/05 04:07:52;;;;;;;21.55;13.40;;;3.50;99.90;;;;;;5050242;28;20209;-57
2021/01/05 04:10:18;;;;;;;22.77;14.27;;;3.30;99.90;;;;;;5068233;28;20189;-56
2021/01/05 04:12:44;;;;;;;21.45;14.40;;;3.40;99.90;;;;;;5069869;28;20250;-56
2021/01/05 04:15:23;;;;;;;20.35;14.00;;;3.40;99.90;;;;;;5064447;28;20227;-57
2021/01/05 04:17:49;;;;;;;20.88;13.70;;;3.60;99.90;;;;;;5063372;28;20274;-56
2021/01/05 04:20:15;;;;;;;23.70;15.63;;;3.60;99.90;;;;;;5069744;28;20177;-56
2021/01/05 04:22:41;;;;;;;23.60;14.95;;;3.50;99.90;;;;;;5069869;28;20177;-57
2021/01/05 04:25:08;;;;;;;22.23;15.35;;;3.70;99.90;;;;;;5066536;28;20233;-57
2021/01/05 04:27:33;;;;;;;21.95;14.02;;;3.50;99.90;;;;;;5066443;28;20205;-57
2021/01/05 04:29:59;;;;;;;21.60;15.00;;;3.50;99.90;;;;;;5068343;28;20186;-56
2021/01/05 04:32:25;;;;;;;20.10;15.33;;;3.70;99.90;;;;;;5056689;28;20277;-57
2021/01/05 04:34:50;;;;;;;24.17;14.33;;;3.70;99.90;;;;;;5069688;28;20347;-56
2021/01/05 04:37:16;;;;;;;24.77;16.30;;;3.30;99.90;;;;;;5069754;28;20209;-56
2021/01/05 04:39:42;;;;;;;20.23;13.83;;;3.40;99.90;;;;;;5070553;28;20189;-55
2021/01/05 04:42:31;;;;;;;23.23;15.47;;;3.20;99.90;;;;;;5069761;28;20188;-59
2021/01/05 04:45:06;;;;;;;24.00;15.30;;;3.40;99.90;;;;;;5068595;28;20431;-56
2021/01/05 04:48:18;;;;;;;22.58;14.77;;;3.70;99.90;;;;;;5056043;28;20221;-56
2021/01/05 04:50:51;;;;;;;23.63;14.55;;;3.60;99.90;;;;;;5055037;28;20336;-56
2021/01/05 04:53:20;;;;;;;21.15;13.73;;;3.40;99.90;;;;;;5067959;28;20189;-56
2021/01/05 04:55:55;;;;;;;24.27;15.60;;;3.20;99.90;;;;;;5068768;28;20192;-56
2021/01/05 04:58:46;;;;;;;21.75;13.63;;;3.50;99.90;;;;;;5070226;28;20200;-55
2021/01/05 05:01:20;;;;;;;20.85;14.25;;;3.30;99.90;;;;;;5066214;28;20185;-56
2021/01/05 05:04:10;;;;;;;26.30;14.65;;;3.40;99.90;;;;;;5068982;28;20212;-56
2021/01/05 05:06:45;;;;;;;21.60;14.48;;;3.40;99.90;;;;;;5063948;28;20220;-56
2021/01/05 05:09:25;;;;;;;21.70;15.05;;;3.00;99.90;;;;;;5054175;28;20205;-56
2021/01/05 05:12:31;;;;;;;22.88;15.68;;;3.40;99.90;;;;;;5068593;28;20181;-56
2021/01/05 05:15:03;;;;;;;24.08;14.93;;;3.10;99.90;;;;;;5068029;28;20204;-56
2021/01/05 05:18:02;;;;;;;23.33;14.52;;;3.00;99.90;;;;;;5069552;28;20204;-55
2021/01/05 05:20:41;;;;;;;26.65;15.18;;;3.50;99.90;;;;;;5068134;28;20185;-55
2021/01/05 05:23:13;;;;;;;25.65;16.80;;;3.60;99.90;;;;;;5068702;28;20184;-55
2021/01/05 05:25:48;;;;;;;22.60;15.15;;;3.50;99.90;;;;;;5068652;28;20185;-56
2021/01/05 05:28:29;;;;;;;24.10;16.25;;;3.90;99.90;;;;;;5068126;28;20185;-56
2021/01/05 05:30:57;;;;;;;23.58;16.45;;;3.70;99.90;;;;;;5056344;28;20181;-56
2021/01/05 05:33:25;;;;;;;25.15;16.33;;;3.30;99.90;;;;;;5068300;28;20685;-56
2021/01/05 05:36:05;;;;;;;24.73;18.27;;;3.50;99.90;;;;;;5054513;28;20231;-56
2021/01/05 05:38:43;;;;;;;22.95;15.52;;;3.70;99.90;;;;;;5057270;28;20201;-56
2021/01/05 05:41:47;;;;;;;20.20;14.70;;;3.60;99.90;;;;;;5069074;28;20207;-56
2021/01/05 05:44:34;;;;;;;19.50;14.15;;;3.80;99.90;;;;;;5058469;28;20199;-56
2021/01/05 05:47:25;;;;;;;23.73;15.80;;;2.90;99.90;;;;;;5067846;28;20199;-56
2021/01/05 05:50:13;;;;;;;21.10;14.40;;;3.40;99.90;;;;;;5060597;28;20219;-56
2021/01/05 05:53:09;;;;;;;25.27;16.98;;;3.60;99.90;;;;;;5067181;28;20279;-56
2021/01/05 05:55:57;;;;;;;21.75;15.40;;;3.90;99.90;;;;;;5060343;28;20223;-56
2021/01/05 05:58:36;;;;;;;22.70;15.32;;;3.60;99.90;;;;;;5067273;28;20797;-56
2021/01/05 06:01:06;;;;;;;21.67;15.38;;;3.40;99.90;;;;;;5065806;28;20177;-56
2021/01/05 06:03:32;;;;;;;22.73;15.93;;;3.50;99.90;;;;;;5064657;28;20188;-55
2021/01/05 06:05:57;;;;;;;22.60;15.63;;;3.70;99.90;;;;;;5067981;28;20189;-55
2021/01/05 06:08:24;;;;;;;22.37;15.73;;;3.80;99.90;;;;;;5050403;28;20663;-55
2021/01/05 06:10:51;;;;;;;21.40;15.50;;;3.60;99.90;;;;;;5051167;28;20742;-56
2021/01/05 06:13:17;;;;;;;23.02;15.93;;;3.90;99.90;;;;;;5057554;28;20182;-56
2021/01/05 06:15:43;;;;;;;23.93;16.50;;;3.60;99.90;;;;;;5064566;28;20577;-56
2021/01/05 06:18:12;;;;;;;23.45;14.30;;;3.80;99.90;;;;;;5067390;28;20440;-55
2021/01/05 06:20:38;;;;;;;19.65;15.00;;;3.80;99.90;;;;;;5060180;28;20177;-55
2021/01/05 06:23:04;;;;;;;21.97;16.00;;;3.80;99.90;;;;;;5067563;28;20181;-56
2021/01/05 06:25:30;;;;;;;22.38;15.48;;;3.70;99.90;;;;;;5067334;28;20196;-58
2021/01/05 06:27:55;;;;;;;23.27;15.63;;;3.80;99.90;;;;;;5066268;28;20201;-56
2021/01/05 06:30:22;;;;;;;25.40;16.57;;;3.90;99.90;;;;;;5067000;28;20625;-56
2021/01/05 06:32:48;;;;;;;19.80;14.10;;;3.80;99.90;;;;;;5060243;28;20186;-56
2021/01/05 06:35:16;;;;;;;20.70;15.23;;;4.20;99.90;;;;;;5062584;28;20196;-56
2021/01/05 06:37:41;;;;;;;19.70;14.18;;;3.90;99.90;;;;;;5064057;28;20299;-56
2021/01/05 06:40:08;;;;;;;19.80;14.33;;;4.10;99.90;;;;;;5071225;28;20216;-56
2021/01/05 06:42:35;;;;;;;22.77;15.48;;;3.90;99.90;;;;;;5071111;28;20200;-56
2021/01/05 06:45:00;;;;;;;22.63;14.45;;;4.00;99.90;;;;;;5072755;28;20264;-56
2021/01/05 06:47:26;;;;;;;20.50;15.30;;;3.80;99.90;;;;;;5071180;28;20311;-56
2021/01/05 06:49:52;;;;;;;22.47;14.60;;;3.90;99.90;;;;;;5070653;28;20200;-55
2021/01/05 06:52:17;;;;;;;21.97;15.37;;;3.80;99.90;;;;;;5071384;28;20188;-56
2021/01/05 06:54:43;;;;;;;20.70;14.77;;;3.70;99.90;;;;;;5065513;28;20203;-55
2021/01/05 06:57:09;;;;;;;21.73;15.10;;;3.70;99.90;;;;;;5070589;28;20702;-57
2021/01/05 06:59:35;;;;;;;24.37;16.27;;;4.00;99.90;;;;;;5067116;28;20189;-56
2021/01/05 07:02:04;;;;;;;24.58;16.00;;;3.90;99.90;;;;;;5070034;28;20578;-55
2021/01/05 07:04:30;;;;;;;22.25;15.35;;;3.90;99.90;;;;;;5071158;28;20196;-56
2021/01/05 07:06:56;;;;;;;20.92;14.13;;;4.00;99.90;;;;;;5081592;28;20681;-57
2021/01/05 07:09:23;;;;;;;23.20;16.35;;;3.70;99.90;;;;;;5063320;28;20197;-56
2021/01/05 07:11:49;;;;;;;22.95;15.93;;;3.50;99.90;;;;;;5070791;28;20193;-56
2021/01/05 07:14:18;;;;;;;21.27;14.88;;;4.00;99.90;;;;;;5070267;28;20208;-57
2021/01/05 07:16:44;;;;;;;21.48;14.32;;;4.10;99.90;;;;;;5071079;28;20216;-57
2021/01/05 07:19:09;;;;;;;21.20;14.90;;;3.90;99.90;;;;;;5060158;28;20186;-56
2021/01/05 07:21:35;;;;;;;20.07;14.47;;;3.30;99.90;;;;;;5057311;28;20178;-56
2021/01/05 07:24:01;;;;;;;19.77;14.03;;;3.80;99.90;;;;;;5061521;28;20177;-55
2021/01/05 07:26:27;;;;;;;20.17;15.05;;;4.00;99.90;;;;;;5058291;28;20222;-56
2021/01/05 07:28:52;;;;;;;21.20;13.97;;;4.10;99.90;;;;;;5053227;28;20213;-56
2021/01/05 07:31:18;;;;;;;22.67;15.17;;;3.80;99.90;;;;;;5049744;28;20186;-56
2021/01/05 07:33:44;;;;;;;22.70;15.00;;;3.90;99.90;;;;;;5064778;28;20205;-58
2021/01/05 07:36:20;;;;;;;19.90;13.57;;;3.80;99.90;;;;;;5060990;28;20205;-57
2021/01/05 07:38:46;;;;;;;19.73;13.18;;;3.90;99.90;;;;;;5052920;28;20211;-56
2021/01/05 07:41:11;;;;;;;19.80;14.40;;;4.20;99.90;;;;;;5054368;28;20177;-57
2021/01/05 07:43:37;;;;;;;21.50;13.97;;;4.00;99.90;;;;;;5062441;28;20212;-56
2021/01/05 07:46:03;;;;;;;23.10;15.47;;;4.10;99.90;;;;;;5066123;28;20208;-57
2021/01/05 07:48:29;;;;;;;19.02;13.68;;;3.90;99.90;;;;;;5060094;28;20248;-57
2021/01/05 07:50:54;;;;;;;21.90;14.20;;;4.00;99.90;;;;;;5068121;28;20200;-57
2021/01/05 07:53:20;;;;;;;18.47;13.53;;;4.30;99.90;;;;;;5062694;28;20635;-57
2021/01/05 07:55:45;;;;;;;20.80;14.07;;;4.10;99.90;;;;;;5056516;28;20201;-57
2021/01/05 07:58:11;;;;;;;26.10;13.10;;;3.90;99.90;;;;;;5062880;28;20275;-58
2021/01/05 08:00:36;;;;;;;17.77;12.83;;;3.90;99.90;;;;;;5059482;28;20668;-58
2021/01/05 08:03:02;;;;;;;17.40;12.90;;;4.20;99.90;;;;;;5066199;28;20276;-59
2021/01/05 08:05:28;;;;;;;21.57;13.80;;;4.10;99.90;;;;;;5065231;28;20193;-57
2021/01/05 08:07:55;;;;;;;20.17;13.88;;;4.00;99.90;;;;;;5062332;28;20482;-58
2021/01/05 08:10:30;;;;;;;20.98;13.77;;;3.60;99.90;;;;;;5069435;28;20189;-57
2021/01/05 08:12:56;;;;;;;17.23;13.23;;;4.20;99.90;;;;;;5062223;28;20652;-56
2021/01/05 08:15:25;;;;;;;17.60;13.40;;;4.10;99.90;;;;;;5064160;28;20208;-56
2021/01/05 08:17:52;;;;;;;23.60;15.48;;;3.90;99.90;;;;;;5059817;28;20201;-56
2021/01/05 08:20:19;;;;;;;20.20;12.52;;;3.90;99.90;;;;;;5064830;28;20281;-57
2021/01/05 08:22:45;;;;;;;15.80;12.50;;;3.90;99.90;;;;;;5058838;28;20178;-57
2021/01/05 08:25:12;;;;;;;17.63;13.50;;;3.50;99.90;;;;;;5059805;28;20239;-55
2021/01/05 08:27:37;;;;;;;19.05;13.27;;;4.10;99.90;;;;;;5068765;28;20233;-56
2021/01/05 08:30:05;;;;;;;18.13;12.77;;;4.30;99.90;;;;;;5060756;28;20209;-58
2021/01/05 08:32:31;;;;;;;15.50;12.55;;;4.00;99.90;;;;;;5067053;28;20193;-58
2021/01/05 08:34:56;;;;;;;19.53;14.20;;;3.90;99.90;;;;;;5067878;28;20698;-56
2021/01/05 08:37:22;;;;;;;19.90;13.57;;;3.90;99.90;;;;;;5064399;28;20732;-57
2021/01/05 08:39:48;;;;;;;18.13;14.90;;;4.20;99.90;;;;;;5063483;28;20232;-57
2021/01/05 08:42:13;;;;;;;17.63;12.73;;;3.90;99.90;;;;;;5062370;28;20181;-57
2021/01/05 08:44:39;;;;;;;18.13;13.00;;;3.60;99.90;;;;;;5055866;28;20443;-57
2021/01/05 08:47:04;;;;;;;16.30;13.23;;;4.10;99.90;;;;;;5052687;28;20221;-57
2021/01/05 08:49:32;;;;;;;19.03;12.70;;;4.20;99.90;;;;;;5053947;28;20242;-57
2021/01/05 08:51:58;;;;;;;17.50;13.75;;;4.10;99.90;;;;;;5061950;28;20656;-56
2021/01/05 08:54:24;;;;;;;18.17;12.37;;;3.90;99.90;;;;;;5055918;28;20239;-55
2021/01/05 08:56:54;;;;;;;16.90;12.50;;;3.90;99.90;;;;;;5054025;28;20182;-55
2021/01/05 08:59:20;;;;;;;16.20;11.65;;;4.30;99.90;;;;;;5064386;28;20447;-56
2021/01/05 09:01:45;;;;;;;19.90;13.07;;;4.00;99.90;;;;;;5060673;28;20181;-55
2021/01/05 09:04:11;;;;;;;17.70;13.40;;;4.00;99.90;;;;;;5060673;28;20238;-56
2021/01/05 09:06:37;;;;;;;16.93;12.60;;;4.20;99.90;;;;;;5052224;28;20642;-55
2021/01/05 09:09:02;;;;;;;18.73;12.70;;;4.00;99.90;;;;;;5061700;28;20247;-56
2021/01/05 09:11:28;;;;;;;19.13;13.27;;;3.90;99.90;;;;;;5062556;28;20258;-56
2021/01/05 09:13:54;;;;;;;17.23;12.77;;;3.80;99.90;;;;;;5053370;28;20205;-56
2021/01/05 09:16:27;;;;;;;17.63;12.05;;;3.60;99.90;;;;;;5054045;28;20431;-57
2021/01/05 09:18:56;;;;;;;17.42;13.45;;;3.40;99.90;;;;;;5053082;28;20336;-58
2021/01/05 09:21:24;;;;;;;19.65;14.32;;;3.60;99.90;;;;;;5054990;28;20177;-57
2021/01/05 09:23:55;;;;;;;16.90;13.18;;;3.90;99.90;;;;;;5064569;28;20547;-54
2021/01/05 09:26:33;;;;;;;18.35;12.50;;;4.00;99.90;;;;;;5064525;28;20654;-56
2021/01/05 09:28:59;;;;;;;16.67;12.93;;;3.90;99.90;;;;;;5053761;28;20658;-56
2021/01/05 09:31:25;;;;;;;16.63;12.70;;;4.00;99.90;;;;;;5054964;28;20283;-58
2021/01/05 09:33:51;;;;;;;16.73;12.88;;;4.10;99.90;;;;;;5057700;28;20340;-56
2021/01/05 09:36:18;;;;;;;19.37;12.50;;;4.40;99.90;;;;;;5053208;28;20272;-56
2021/01/05 09:38:45;;;;;;;19.23;13.18;;;4.10;99.90;;;;;;5061242;28;20201;-56
2021/01/05 09:41:25;;;;;;;19.85;14.43;;;4.10;99.90;;;;;;5055353;28;20181;-57
2021/01/05 09:43:51;;;;;;;17.65;12.65;;;4.10;99.90;;;;;;5058346;28;20682;-59
2021/01/05 09:46:19;;;;;;;14.52;11.95;;;4.10;99.90;;;;;;5046985;28;20225;-56
2021/01/05 09:48:46;;;;;;;16.75;12.10;;;3.60;99.90;;;;;;5061926;28;20208;-58
2021/01/05 09:51:26;;;;;;;16.35;11.93;;;4.30;99.90;;;;;;5063091;28;20177;-58
2021/01/05 09:53:51;;;;;;;18.65;12.65;;;3.90;99.90;;;;;;5067218;28;20200;-57
2021/01/05 09:56:18;;;;;;;16.00;12.20;;;4.10;99.90;;;;;;5049311;28;20177;-57
2021/01/05 09:58:44;;;;;;;18.52;13.75;;;4.00;99.90;;;;;;5063921;28;20201;-56
2021/01/05 10:01:09;;;;;;;19.15;12.65;;;3.50;99.90;;;;;;5056107;28;20265;-58
2021/01/05 10:03:35;;;;;;;16.03;11.83;;;4.20;99.90;;;;;;5060657;28;20234;-58
2021/01/05 10:06:01;;;;;;;19.77;13.53;;;4.00;99.90;;;;;;5061892;28;20188;-57
2021/01/05 10:08:27;;;;;;;21.37;14.07;;;4.20;99.90;;;;;;5053362;28;20212;-58
2021/01/05 10:10:53;;;;;;;20.27;14.95;;;4.10;99.90;;;;;;5059656;28;20195;-57
2021/01/05 10:13:19;;;;;;;17.50;13.38;;;4.30;99.90;;;;;;5066386;28;20208;-57
2021/01/05 10:15:45;;;;;;;18.20;13.67;;;4.40;99.90;;;;;;5064085;28;20181;-57
2021/01/05 10:18:11;;;;;;;17.38;13.85;;;4.20;99.90;;;;;;5052777;28;20227;-57
2021/01/05 10:20:36;;;;;;;19.10;14.00;;;4.10;99.90;;;;;;5052361;28;20182;-58
2021/01/05 10:23:02;;;;;;;20.80;13.80;;;3.90;99.90;;;;;;5052206;28;20345;-56
2021/01/05 10:25:28;;;;;;;19.73;14.60;;;3.90;99.90;;;;;;5066026;28;20684;-58
2021/01/05 10:27:53;;;;;;;25.90;16.20;;;3.90;99.90;;;;;;5062648;28;20483;-57
2021/01/05 10:30:20;;;;;;;18.47;14.10;;;3.90;99.90;;;;;;5048969;28;20201;-57
2021/01/05 10:32:45;;;;;;;17.73;12.50;;;4.20;99.90;;;;;;5061341;28;20189;-58
2021/01/05 10:35:17;;;;;;;24.47;15.80;;;4.30;99.90;;;;;;5058620;28;20579;-57
2021/01/05 10:37:47;;;;;;;19.77;14.30;;;4.20;99.90;;;;;;5056247;28;20632;-57
2021/01/05 10:40:16;;;;;;;21.73;14.52;;;4.00;99.90;;;;;;5062701;28;20753;-57
2021/01/05 10:42:43;;;;;;;18.08;13.35;;;4.30;99.90;;;;;;5053895;28;20327;-57
2021/01/05 10:45:12;;;;;;;19.25;13.70;;;4.30;99.90;;;;;;5050823;28;20199;-57
2021/01/05 10:47:41;;;;;;;17.55;13.10;;;3.90;99.90;;;;;;5062332;28;20570;-57
2021/01/05 10:50:10;;;;;;;17.92;13.32;;;4.50;99.90;;;;;;5063378;28;20257;-57
2021/01/05 10:52:35;;;;;;;17.60;13.18;;;4.30;99.90;;;;;;5052155;28;20202;-57
2021/01/05 10:55:02;;;;;;;20.13;13.60;;;4.20;99.90;;;;;;5054504;28;20248;-58
2021/01/05 10:57:27;;;;;;;21.13;15.40;;;4.50;99.90;;;;;;5055536;28;20705;-55
2021/01/05 10:59:53;;;;;;;16.30;12.77;;;4.30;99.90;;;;;;5058431;28;20212;-57
2021/01/05 11:02:19;;;;;;;19.77;13.10;;;4.40;99.90;;;;;;5049355;28;20197;-58
2021/01/05 11:04:45;;;;;;;18.73;13.07;;;4.20;99.90;;;;;;5051484;28;20194;-58
2021/01/05 11:07:13;;;;;;;16.80;11.75;;;4.60;99.90;;;;;;5053258;28;20215;-58
2021/01/05 11:09:39;;;;;;;18.70;13.63;;;4.50;99.90;;;;;;5058649;28;20193;-58
2021/01/05 11:12:10;;;;;;;20.88;14.88;;;4.80;99.90;;;;;;5063771;28;20183;-58
2021/01/05 11:14:36;;;;;;;19.30;13.68;;;4.90;99.90;;;;;;5059232;28;20217;-57
2021/01/05 11:17:01;;;;;;;24.00;17.03;;;4.90;99.90;;;;;;5065236;28;20257;-55
2021/01/05 11:19:27;;;;;;;19.83;12.37;;;4.90;99.90;;;;;;5059182;28;20484;-59
2021/01/05 11:21:55;;;;;;;16.37;11.70;;;5.00;99.90;;;;;;5067098;28;20668;-58
2021/01/05 11:24:21;;;;;;;15.65;11.75;;;4.90;99.90;;;;;;5056514;28;20247;-58
2021/01/05 11:26:48;;;;;;;18.25;12.85;;;4.70;99.90;;;;;;5053819;28;20186;-58
2021/01/05 11:29:13;;;;;;;14.98;12.57;;;5.00;99.90;;;;;;5058787;28;20198;-58
2021/01/05 11:31:39;;;;;;;17.93;13.27;;;4.80;99.90;;;;;;5054484;28;20182;-58
2021/01/05 11:34:05;;;;;;;17.00;12.30;;;4.90;99.90;;;;;;5054708;28;20460;-58
2021/01/05 11:36:31;;;;;;;18.17;11.90;;;4.80;99.90;;;;;;5056145;28;20444;-55
2021/01/05 11:38:57;;;;;;;16.77;12.25;;;5.00;99.90;;;;;;5056409;28;20336;-58
2021/01/05 11:41:31;;;;;;;16.20;11.77;;;4.10;99.90;;;;;;5060418;28;20662;-58
2021/01/05 11:43:57;;;;;;;17.77;11.93;;;4.80;99.90;;;;;;5051587;28;20178;-58
2021/01/05 11:46:23;;;;;;;19.45;14.10;;;4.40;99.90;;;;;;5054254;28;20226;-58
2021/01/05 11:48:49;;;;;;;15.43;11.88;;;4.80;99.90;;;;;;5058374;28;20197;-58
2021/01/05 11:51:17;;;;;;;17.70;12.00;;;4.80;99.90;;;;;;5052594;28;20182;-58
2021/01/05 11:53:42;;;;;;;17.92;12.35;;;5.10;99.90;;;;;;5054516;28;20653;-58
2021/01/05 11:56:10;;;;;;;19.90;12.80;;;4.60;99.90;;;;;;5057845;28;20181;-58
2021/01/05 11:58:35;;;;;;;15.70;11.60;;;4.80;99.90;;;;;;5059886;28;20380;-58
2021/01/05 12:01:01;;;;;;;17.63;13.10;;;4.50;99.90;;;;;;5061018;28;20174;-58
2021/01/05 12:03:26;;;;;;;17.90;12.23;;;4.50;99.90;;;;;;5050641;28;20813;-58
2021/01/05 12:05:52;;;;;;;17.53;13.20;;;4.40;99.90;;;;;;5050118;28;20181;-58
2021/01/05 12:08:18;;;;;;;20.73;14.73;;;4.40;99.90;;;;;;5058622;28;20237;-57
2021/01/05 12:10:46;;;;;;;19.77;14.30;;;4.40;99.90;;;;;;5053881;28;20927;-56
2021/01/05 12:13:11;;;;;;;16.45;12.80;;;4.70;99.90;;;;;;5050236;28;20177;-57
2021/01/05 12:15:37;;;;;;;21.23;13.67;;;4.70;99.90;;;;;;5068130;28;20739;-57
2021/01/05 12:18:02;;;;;;;17.03;13.00;;;4.50;99.90;;;;;;5068203;28;20209;-57
2021/01/05 12:20:28;;;;;;;18.60;13.10;;;4.40;99.90;;;;;;5060855;28;20190;-58
2021/01/05 12:22:54;;;;;;;19.63;13.90;;;4.50;99.90;;;;;;5068021;28;20642;-56
2021/01/05 12:25:19;;;;;;;17.37;12.60;;;4.50;99.90;;;;;;5054124;28;20234;-56
2021/01/05 12:27:46;;;;;;;19.37;13.70;;;4.50;99.90;;;;;;5067319;28;20213;-57
2021/01/05 12:30:12;;;;;;;17.65;12.32;;;4.30;99.90;;;;;;5064908;28;20177;-57
2021/01/05 12:32:38;;;;;;;17.50;13.23;;;4.50;99.90;;;;;;5065961;28;20245;-57
2021/01/05 12:35:04;;;;;;;19.70;13.50;;;4.40;99.90;;;;;;5049027;28;20205;-59
2021/01/05 12:37:29;;;;;;;18.63;12.60;;;5.00;99.90;;;;;;5055005;28;21240;-58
2021/01/05 12:39:55;;;;;;;17.90;12.40;;;4.70;99.90;;;;;;5049551;28;20209;-58
2021/01/05 12:42:25;;;;;;;15.80;12.07;;;4.80;99.90;;;;;;5054277;28;20705;-58
2021/01/05 12:44:52;;;;;;;18.35;12.25;;;4.90;99.90;;;;;;5053023;28;20663;-58
2021/01/05 12:47:18;;;;;;;18.60;13.07;;;4.50;99.90;;;;;;5060579;28;20745;-58
2021/01/05 12:49:46;;;;;;;20.63;14.20;;;4.40;99.90;;;;;;5054159;28;20178;-58
2021/01/05 12:52:12;;;;;;;18.92;12.90;;;4.50;99.90;;;;;;5066201;28;20190;-58
2021/01/05 12:54:39;;;;;;;22.10;13.90;;;4.30;99.90;;;;;;5060314;28;20216;-57
2021/01/05 12:57:07;;;;;;;17.90;13.02;;;4.10;99.90;;;;;;5064791;28;20466;-58